createdAt,value
2018-07-06T00:01:47.061Z,1.70
2018-07-06T00:04:27.232Z,1.60
2018-07-06T00:07:07.330Z,1.50
2018-07-06T00:09:47.624Z,1.70
2018-07-06T00:12:27.601Z,1.57
2018-07-06T00:15:07.738Z,1.70
2018-07-06T00:17:48.175Z,1.47
2018-07-06T00:20:28.639Z,1.97
2018-07-06T00:23:09.400Z,1.73
2018-07-06T00:25:49.556Z,1.40
2018-07-06T00:28:29.791Z,1.73
2018-07-06T00:31:09.792Z,1.77
2018-07-06T00:33:50.129Z,1.80
2018-07-06T00:36:30.268Z,1.60
2018-07-06T00:39:10.574Z,1.20
2018-07-06T00:41:51.106Z,1.70
2018-07-06T00:44:31.066Z,1.87
2018-07-06T00:47:11.228Z,1.80
2018-07-06T00:49:51.106Z,2.07
2018-07-06T00:52:31.258Z,1.90
2018-07-06T00:55:11.699Z,1.80
2018-07-06T00:57:52.769Z,1.70
2018-07-06T01:00:33.097Z,1.40
2018-07-06T01:03:13.295Z,1.70
2018-07-06T01:05:54.606Z,1.87
2018-07-06T01:08:34.888Z,1.87
2018-07-06T01:11:15.036Z,1.90
2018-07-06T01:13:55.267Z,1.30
2018-07-06T01:16:35.246Z,1.90
2018-07-06T01:19:15.445Z,1.50
2018-07-06T01:21:55.862Z,2.00
2018-07-06T01:24:36.055Z,1.43
2018-07-06T01:27:16.179Z,1.80
2018-07-06T01:29:56.186Z,1.80
2018-07-06T01:32:36.270Z,1.60
2018-07-06T01:35:16.388Z,1.30
2018-07-06T01:37:56.584Z,1.70
2018-07-06T01:40:36.517Z,1.60
2018-07-06T01:43:16.609Z,1.40
2018-07-06T01:45:56.639Z,1.60
2018-07-06T01:48:36.928Z,1.50
2018-07-06T01:51:16.929Z,2.03
2018-07-06T01:53:57.029Z,2.00
2018-07-06T01:56:37.065Z,1.40
2018-07-06T01:59:17.706Z,2.00
2018-07-06T02:01:57.858Z,2.37
2018-07-06T02:04:37.977Z,2.63
2018-07-06T02:07:18.240Z,1.60
2018-07-06T02:09:58.389Z,1.83
2018-07-06T02:12:38.569Z,2.03
2018-07-06T02:15:18.930Z,2.17
2018-07-06T02:17:59.609Z,2.23
2018-07-06T02:20:39.416Z,2.30
2018-07-06T02:23:19.782Z,2.33
2018-07-06T02:25:59.875Z,2.27
2018-07-06T02:28:40.295Z,1.60
2018-07-06T02:31:20.436Z,2.50
2018-07-06T02:34:00.596Z,2.57
2018-07-06T02:36:40.786Z,2.67
2018-07-06T02:39:20.917Z,1.80
2018-07-06T02:42:01.129Z,1.87
2018-07-06T02:44:41.647Z,1.77
2018-07-06T02:47:21.477Z,2.10
2018-07-06T02:50:02.786Z,1.90
2018-07-06T02:52:42.791Z,2.40
2018-07-06T02:55:22.805Z,2.50
2018-07-06T02:58:03.190Z,2.23
2018-07-06T03:00:43.018Z,1.70
2018-07-06T03:03:23.258Z,1.80
2018-07-06T03:06:03.098Z,1.80
2018-07-06T03:08:43.245Z,1.90
2018-07-06T03:11:23.490Z,1.90
2018-07-06T03:14:03.782Z,2.37
2018-07-06T03:16:43.725Z,2.80
2018-07-06T03:19:24.301Z,2.00
2018-07-06T03:21:58.437Z,2.57
2018-07-06T03:24:38.775Z,1.83
2018-07-06T03:27:18.788Z,2.23
2018-07-06T03:29:59.063Z,2.27
2018-07-06T03:32:39.136Z,2.57
2018-07-06T03:35:19.806Z,2.40
2018-07-06T03:38:00.214Z,2.57
2018-07-06T03:40:40.356Z,2.77
2018-07-06T03:43:20.387Z,2.13
2018-07-06T03:46:00.978Z,2.37
2018-07-06T03:48:41.014Z,2.17
2018-07-06T03:51:21.160Z,2.00
2018-07-06T03:54:01.429Z,2.37
2018-07-06T03:56:41.697Z,2.40
2018-07-06T03:59:22.053Z,2.40
2018-07-06T04:02:02.119Z,2.10
2018-07-06T04:04:42.339Z,2.20
2018-07-06T04:07:22.718Z,2.03
2018-07-06T04:10:02.833Z,2.10
2018-07-06T04:12:42.982Z,2.30
2018-07-06T04:15:23.792Z,2.30
2018-07-06T04:18:04.360Z,2.00
2018-07-06T04:20:44.444Z,2.17
2018-07-06T04:23:24.749Z,2.30
2018-07-06T04:26:05.125Z,1.93
2018-07-06T04:28:45.349Z,2.10
2018-07-06T04:31:25.288Z,2.23
2018-07-06T04:34:05.868Z,1.90
2018-07-06T04:36:46.310Z,2.40
2018-07-06T04:39:26.766Z,2.00
2018-07-06T04:42:07.253Z,2.10
2018-07-06T04:44:47.228Z,1.90
2018-07-06T04:47:27.158Z,2.20
2018-07-06T04:50:07.321Z,2.00
2018-07-06T04:52:47.470Z,2.30
2018-07-06T04:55:27.844Z,2.77
2018-07-06T04:58:08.063Z,2.10
2018-07-06T05:00:48.431Z,2.00
2018-07-06T05:03:28.306Z,2.20
2018-07-06T05:06:08.554Z,2.10
2018-07-06T05:08:48.396Z,2.27
2018-07-06T05:11:28.760Z,2.47
2018-07-06T05:14:08.989Z,2.40
2018-07-06T05:16:49.275Z,2.40
2018-07-06T05:19:30.207Z,2.30
2018-07-06T05:22:10.556Z,2.20
2018-07-06T05:24:50.680Z,2.10
2018-07-06T05:27:30.622Z,2.20
2018-07-06T05:30:10.992Z,2.40
2018-07-06T05:32:51.101Z,1.80
2018-07-06T05:35:31.479Z,2.27
2018-07-06T05:38:11.519Z,2.03
2018-07-06T05:40:51.840Z,1.97
2018-07-06T05:43:33.316Z,2.00
2018-07-06T05:46:14.302Z,1.90
2018-07-06T05:48:54.308Z,1.90
2018-07-06T05:51:34.386Z,1.87
2018-07-06T05:54:14.560Z,1.90
2018-07-06T05:56:54.552Z,1.87
2018-07-06T05:59:34.580Z,1.80
2018-07-06T06:02:14.790Z,2.07
2018-07-06T06:04:54.766Z,1.83
2018-07-06T06:07:26.491Z,2.00
2018-07-06T06:09:55.829Z,2.00
2018-07-06T06:12:25.190Z,2.00
2018-07-06T06:14:54.985Z,1.57
2018-07-06T06:17:24.409Z,1.63
2018-07-06T06:19:54.167Z,1.90
2018-07-06T06:22:23.708Z,1.80
2018-07-06T06:24:53.143Z,1.70
2018-07-06T06:27:22.789Z,1.70
2018-07-06T06:29:52.537Z,1.70
2018-07-06T06:32:22.409Z,1.80
2018-07-06T06:34:52.012Z,1.73
2018-07-06T06:37:21.730Z,1.40
2018-07-06T06:39:51.420Z,1.90
2018-07-06T06:42:20.849Z,1.70
2018-07-06T06:44:50.448Z,1.50
2018-07-06T06:47:20.076Z,1.60
2018-07-06T06:49:49.808Z,1.80
2018-07-06T06:52:18.922Z,1.73
2018-07-06T06:54:48.539Z,1.80
2018-07-06T06:57:18.028Z,1.85
2018-07-06T06:59:47.481Z,1.70
2018-07-06T07:02:17.310Z,1.60
2018-07-06T07:04:47.007Z,1.90
2018-07-06T07:07:16.572Z,1.80
2018-07-06T07:09:46.762Z,1.70
2018-07-06T07:12:16.145Z,1.80
2018-07-06T07:14:46.510Z,1.60
2018-07-06T07:17:16.158Z,1.70
2018-07-06T07:19:45.697Z,1.50
2018-07-06T07:22:15.187Z,1.70
2018-07-06T07:24:45.410Z,1.70
2018-07-06T07:27:15.735Z,1.70
2018-07-06T07:29:46.400Z,1.70
2018-07-06T07:32:15.728Z,1.90
2018-07-06T07:34:45.148Z,1.77
2018-07-06T07:37:14.620Z,2.17
2018-07-06T07:39:44.226Z,1.70
2018-07-06T07:42:13.566Z,1.57
2018-07-06T07:44:42.817Z,1.77
2018-07-06T07:47:12.259Z,1.73
2018-07-06T07:49:41.887Z,1.60
2018-07-06T07:52:21.956Z,2.10
2018-07-06T07:54:56.760Z,1.97
2018-07-06T07:57:25.981Z,1.90
2018-07-06T07:59:56.307Z,2.00
2018-07-06T08:02:25.344Z,1.83
2018-07-06T08:04:54.957Z,2.30
2018-07-06T08:07:24.431Z,2.13
2018-07-06T08:09:54.088Z,2.30
2018-07-06T08:12:23.575Z,2.20
2018-07-06T08:14:53.429Z,2.40
2018-07-06T08:17:23.501Z,2.00
2018-07-06T08:19:53.189Z,2.10
2018-07-06T08:22:22.501Z,2.07
2018-07-06T08:24:51.767Z,1.80
2018-07-06T08:27:21.622Z,1.87
2018-07-06T08:29:51.173Z,1.73
2018-07-06T08:32:20.849Z,2.23
2018-07-06T08:35:00.879Z,1.80
2018-07-06T08:37:44.522Z,2.10
2018-07-06T08:40:15.238Z,2.00
2018-07-06T08:42:52.952Z,1.90
2018-07-06T08:45:22.539Z,1.43
2018-07-06T08:47:51.801Z,1.77
2018-07-06T08:50:21.222Z,1.77
2018-07-06T08:52:51.374Z,1.80
2018-07-06T08:55:21.932Z,1.60
2018-07-06T08:57:52.737Z,1.90
2018-07-06T09:00:21.941Z,2.00
2018-07-06T09:02:51.105Z,1.93
2018-07-06T09:05:20.412Z,1.83
2018-07-06T09:07:50.050Z,2.00
2018-07-06T09:10:19.529Z,1.90
2018-07-06T09:12:49.741Z,1.87
2018-07-06T09:15:19.403Z,2.20
2018-07-06T09:17:48.707Z,2.30
2018-07-06T09:20:18.306Z,2.50
2018-07-06T09:22:47.772Z,2.40
2018-07-06T09:25:17.368Z,2.20
2018-07-06T09:27:47.562Z,2.60
2018-07-06T09:30:17.069Z,2.50
2018-07-06T09:32:46.338Z,2.80
2018-07-06T09:35:15.619Z,2.20
2018-07-06T09:37:44.972Z,2.30
2018-07-06T09:40:14.425Z,2.40
2018-07-06T09:42:44.253Z,2.10
2018-07-06T09:45:13.491Z,2.40
2018-07-06T09:47:42.856Z,1.90
2018-07-06T09:50:12.400Z,2.10
2018-07-06T09:52:41.487Z,2.30
2018-07-06T09:55:10.858Z,2.57
2018-07-06T09:57:40.621Z,2.33
2018-07-06T10:00:13.460Z,2.10
2018-07-06T10:02:42.902Z,2.13
2018-07-06T10:05:12.277Z,2.17
2018-07-06T10:07:41.533Z,2.10
2018-07-06T10:10:11.103Z,2.30
2018-07-06T10:12:40.596Z,2.23
2018-07-06T10:15:10.056Z,2.20
2018-07-06T10:17:39.660Z,2.30
2018-07-06T10:20:09.416Z,2.30
2018-07-06T10:22:39.072Z,2.17
2018-07-06T10:25:08.487Z,1.90
2018-07-06T10:27:48.455Z,2.10
2018-07-06T10:30:30.571Z,2.20
2018-07-06T10:33:07.304Z,2.50
2018-07-06T10:35:36.985Z,2.47
2018-07-06T10:38:06.699Z,2.27
2018-07-06T10:40:35.938Z,2.40
2018-07-06T10:43:05.451Z,2.30
2018-07-06T10:45:35.007Z,2.40
2018-07-06T10:48:04.617Z,2.57
2018-07-06T10:50:34.009Z,2.30
2018-07-06T10:53:03.420Z,2.40
2018-07-06T10:55:33.073Z,2.17
2018-07-06T10:58:02.675Z,2.10
2018-07-06T11:00:31.988Z,2.10
2018-07-06T11:03:01.782Z,2.50
2018-07-06T11:05:30.952Z,2.37
2018-07-06T11:08:00.349Z,2.43
2018-07-06T11:10:30.464Z,2.60
2018-07-06T11:13:00.015Z,2.37
2018-07-06T11:15:29.512Z,2.30
2018-07-06T11:17:59.092Z,2.73
2018-07-06T11:20:28.580Z,2.67
2018-07-06T11:22:58.087Z,2.57
2018-07-06T11:25:27.683Z,2.20
2018-07-06T11:27:57.182Z,2.60
2018-07-06T11:30:27.104Z,2.40
2018-07-06T11:32:56.517Z,2.40
2018-07-06T11:35:26.052Z,2.37
2018-07-06T11:37:55.393Z,2.30
2018-07-06T11:40:24.660Z,2.37
2018-07-06T11:42:53.930Z,2.47
2018-07-06T11:45:22.881Z,2.47
2018-07-06T11:47:52.571Z,2.17
2018-07-06T11:50:26.023Z,2.00
2018-07-06T11:52:57.862Z,2.30
2018-07-06T11:55:28.573Z,2.30
2018-07-06T11:57:57.952Z,2.10
2018-07-06T12:00:27.660Z,2.20
2018-07-06T12:02:57.118Z,2.70
2018-07-06T12:05:26.285Z,2.50
2018-07-06T12:07:55.739Z,2.33
2018-07-06T12:10:25.472Z,2.10
2018-07-06T12:12:55.087Z,2.30
2018-07-06T12:15:24.204Z,2.10
2018-07-06T12:17:53.469Z,2.03
2018-07-06T12:20:22.830Z,2.13
2018-07-06T12:22:53.346Z,2.40
2018-07-06T12:25:22.801Z,2.20
2018-07-06T12:27:52.302Z,2.20
2018-07-06T12:30:22.020Z,2.20
2018-07-06T12:32:51.750Z,2.40
2018-07-06T12:35:21.363Z,2.17
2018-07-06T12:37:50.783Z,2.20
2018-07-06T12:40:20.176Z,2.23
2018-07-06T12:42:49.320Z,2.10
2018-07-06T12:45:19.082Z,2.03
2018-07-06T12:47:48.550Z,1.97
2018-07-06T12:50:18.319Z,2.10
2018-07-06T12:52:47.795Z,1.80
2018-07-06T12:55:17.223Z,2.17
2018-07-06T12:57:46.693Z,1.90
2018-07-06T13:00:16.290Z,2.30
2018-07-06T13:02:45.337Z,2.20
2018-07-06T13:05:14.299Z,2.40
2018-07-06T13:07:43.422Z,2.37
2018-07-06T13:10:12.941Z,2.27
2018-07-06T13:12:42.349Z,2.40
2018-07-06T13:15:11.679Z,2.37
2018-07-06T13:17:41.057Z,2.17
2018-07-06T13:20:10.551Z,2.37
2018-07-06T13:22:39.811Z,2.10
2018-07-06T13:25:09.212Z,2.10
2018-07-06T13:27:38.664Z,2.10
2018-07-06T13:30:08.572Z,2.40
2018-07-06T13:32:37.718Z,2.40
2018-07-06T13:35:06.909Z,2.57
2018-07-06T13:37:36.393Z,2.30
2018-07-06T13:40:05.790Z,2.13
2018-07-06T13:42:35.632Z,2.13
2018-07-06T13:45:05.009Z,2.37
2018-07-06T13:47:34.140Z,2.20
2018-07-06T13:50:03.610Z,2.30
2018-07-06T13:52:32.950Z,2.40
2018-07-06T13:55:02.535Z,2.40
2018-07-06T13:57:31.647Z,2.00
2018-07-06T14:00:01.446Z,2.10
2018-07-06T14:02:30.850Z,2.33
2018-07-06T14:05:00.263Z,2.00
2018-07-06T14:07:29.449Z,2.50
2018-07-06T14:09:58.627Z,2.30
2018-07-06T14:12:27.808Z,2.03
2018-07-06T14:14:56.998Z,2.20
2018-07-06T14:17:26.451Z,2.10
2018-07-06T14:19:55.901Z,2.00
2018-07-06T14:22:25.436Z,2.23
2018-07-06T14:24:54.937Z,2.40
2018-07-06T14:27:24.427Z,2.10
2018-07-06T14:29:54.057Z,2.30
2018-07-06T14:32:24.296Z,2.20
2018-07-06T14:34:53.803Z,2.40
2018-07-06T14:37:23.191Z,2.60
2018-07-06T14:39:52.639Z,3.20
2018-07-06T14:42:21.952Z,2.87
2018-07-06T14:44:51.459Z,2.70
2018-07-06T14:47:20.991Z,2.50
2018-07-06T14:49:50.439Z,2.63
2018-07-06T14:52:20.114Z,2.77
2018-07-06T14:54:49.788Z,2.57
2018-07-06T14:57:19.354Z,3.10
2018-07-06T14:59:49.016Z,2.90
2018-07-06T15:02:18.758Z,2.83
2018-07-06T15:04:48.471Z,2.80
2018-07-06T15:07:18.425Z,2.97
2018-07-06T15:09:48.106Z,2.60
2018-07-06T15:12:17.929Z,2.50
2018-07-06T15:14:47.948Z,2.73
2018-07-06T15:17:20.684Z,2.80
2018-07-06T15:19:50.116Z,2.93
2018-07-06T15:22:19.668Z,2.40
2018-07-06T15:24:49.040Z,2.40
2018-07-06T15:27:18.298Z,2.60
2018-07-06T15:29:48.096Z,2.80
2018-07-06T15:32:17.916Z,2.73
2018-07-06T15:34:47.318Z,2.77
2018-07-06T15:37:16.705Z,2.80
2018-07-06T15:39:46.174Z,2.50
2018-07-06T15:42:15.923Z,3.03
2018-07-06T15:44:45.308Z,2.90
2018-07-06T15:47:14.787Z,3.00
2018-07-06T15:49:44.256Z,2.77
2018-07-06T15:52:17.278Z,2.90
2018-07-06T15:54:48.051Z,2.77
2018-07-06T15:58:09.454Z,2.80
2018-07-06T16:00:38.857Z,3.03
2018-07-06T16:03:08.515Z,2.63
2018-07-06T16:05:37.951Z,2.87
2018-07-06T16:08:07.307Z,2.77
2018-07-06T16:10:36.954Z,3.30
2018-07-06T16:13:06.397Z,2.70
2018-07-06T16:15:38.783Z,3.10
2018-07-06T16:18:09.079Z,2.70
2018-07-06T16:20:38.465Z,2.53
2018-07-06T16:23:08.244Z,2.80
2018-07-06T16:25:38.536Z,2.87
2018-07-06T16:28:21.841Z,2.80
2018-07-06T16:30:52.822Z,2.70
2018-07-06T16:33:25.799Z,3.00
2018-07-06T16:36:03.183Z,2.97
2018-07-06T16:38:32.524Z,2.80
2018-07-06T16:41:01.782Z,2.73
2018-07-06T16:43:30.987Z,2.73
2018-07-06T16:46:00.298Z,2.60
2018-07-06T16:48:29.756Z,3.20
2018-07-06T16:51:00.683Z,2.33
2018-07-06T16:53:30.317Z,2.80
2018-07-06T16:55:59.911Z,2.33
2018-07-06T16:58:29.189Z,2.73
2018-07-06T17:01:00.434Z,2.80
2018-07-06T17:03:53.735Z,2.70
2018-07-06T17:06:26.562Z,2.33
2018-07-06T17:08:56.012Z,2.83
2018-07-06T17:11:25.388Z,2.50
2018-07-06T17:13:55.794Z,2.50
2018-07-06T17:16:25.359Z,2.50
2018-07-06T17:18:55.093Z,2.53
2018-07-06T17:21:24.252Z,2.23
2018-07-06T17:23:53.291Z,2.67
2018-07-06T17:26:22.480Z,2.50
2018-07-06T17:28:51.738Z,2.50
2018-07-06T17:31:21.317Z,2.30
2018-07-06T17:33:50.713Z,2.23
2018-07-06T17:36:20.077Z,2.30
2018-07-06T17:38:49.725Z,2.30
2018-07-06T17:41:19.197Z,2.40
2018-07-06T17:43:48.816Z,2.50
2018-07-06T17:46:18.340Z,2.53
2018-07-06T17:48:47.472Z,2.73
2018-07-06T17:51:16.952Z,2.37
2018-07-06T17:53:46.228Z,2.13
2018-07-06T17:56:15.681Z,2.40
2018-07-06T17:58:44.812Z,2.00
2018-07-06T18:01:14.292Z,2.47
2018-07-06T18:03:44.430Z,2.20
2018-07-06T18:06:13.755Z,2.30
2018-07-06T18:08:43.378Z,2.30
2018-07-06T18:11:12.569Z,2.17
2018-07-06T18:13:42.199Z,2.30
2018-07-06T18:16:11.915Z,2.43
2018-07-06T18:18:41.357Z,2.30
2018-07-06T18:21:11.077Z,2.43
2018-07-06T18:23:40.618Z,2.17
2018-07-06T18:26:10.072Z,2.40
2018-07-06T18:28:39.437Z,2.50
2018-07-06T18:31:09.137Z,2.53
2018-07-06T18:33:38.490Z,2.30
2018-07-06T18:36:07.639Z,2.10
2018-07-06T18:38:37.519Z,2.30
2018-07-06T18:41:07.002Z,2.33
2018-07-06T18:43:36.227Z,2.20
2018-07-06T18:46:05.823Z,1.90
2018-07-06T18:48:35.361Z,2.20
2018-07-06T18:51:05.118Z,2.17
2018-07-06T18:53:34.628Z,2.40
2018-07-06T18:56:04.059Z,2.17
2018-07-06T18:58:33.874Z,2.07
2018-07-06T19:01:03.666Z,2.00
2018-07-06T19:03:33.503Z,2.13
2018-07-06T19:06:03.123Z,2.30
2018-07-06T19:08:32.568Z,2.40
2018-07-06T19:11:02.438Z,3.20
2018-07-06T19:13:32.126Z,2.13
2018-07-06T19:16:01.645Z,2.10
2018-07-06T19:18:31.156Z,2.23
2018-07-06T19:21:00.894Z,2.17
2018-07-06T19:23:30.733Z,2.27
2018-07-06T19:26:00.384Z,2.40
2018-07-06T19:28:30.108Z,2.77
2018-07-06T19:30:59.333Z,2.90
2018-07-06T19:33:28.979Z,3.13
2018-07-06T19:35:59.379Z,3.13
2018-07-06T19:38:28.848Z,2.40
2018-07-06T19:40:59.111Z,2.53
2018-07-06T19:43:28.538Z,2.30
2018-07-06T19:45:58.105Z,2.53
2018-07-06T19:48:27.565Z,2.47
2018-07-06T19:50:58.004Z,2.37
2018-07-06T19:53:27.123Z,2.13
2018-07-06T19:55:57.478Z,2.23
2018-07-06T19:58:27.297Z,2.30
2018-07-06T20:00:57.176Z,1.90
2018-07-06T20:03:26.632Z,1.90
2018-07-06T20:05:56.255Z,2.07
2018-07-06T20:08:25.696Z,2.37
2018-07-06T20:10:55.312Z,2.17
2018-07-06T20:13:25.190Z,2.27
2018-07-06T20:15:54.726Z,2.30
2018-07-06T20:18:24.234Z,2.20
2018-07-06T20:20:53.996Z,2.17
2018-07-06T20:23:24.114Z,2.23
2018-07-06T20:25:53.724Z,2.30
2018-07-06T20:28:22.972Z,2.07
2018-07-06T20:30:52.507Z,2.40
2018-07-06T20:33:21.977Z,2.50
2018-07-06T20:35:51.723Z,1.90
2018-07-06T20:38:21.279Z,2.37
2018-07-06T20:40:50.877Z,2.57
2018-07-06T20:43:20.431Z,2.43
2018-07-06T20:45:50.008Z,2.63
2018-07-06T20:48:19.294Z,2.63
2018-07-06T20:50:49.005Z,2.33
2018-07-06T20:53:18.862Z,2.80
2018-07-06T20:55:48.211Z,2.60
2018-07-06T20:58:18.000Z,2.23
2018-07-06T21:00:47.629Z,2.30
2018-07-06T21:03:16.869Z,2.47
2018-07-06T21:05:46.324Z,2.30
2018-07-06T21:08:15.782Z,2.23
2018-07-06T21:10:45.224Z,2.40
2018-07-06T21:13:14.185Z,2.20
2018-07-06T21:15:43.512Z,2.50
2018-07-06T21:18:12.994Z,2.30
2018-07-06T21:20:43.323Z,2.27
2018-07-06T21:23:12.822Z,2.10
2018-07-06T21:25:42.958Z,2.30
2018-07-06T21:28:12.465Z,2.23
2018-07-06T21:30:41.859Z,2.27
2018-07-06T21:33:11.733Z,2.40
2018-07-06T21:35:41.269Z,2.50
2018-07-06T21:38:10.986Z,2.40
2018-07-06T21:40:40.289Z,2.50
2018-07-06T21:43:09.668Z,2.50
2018-07-06T21:45:39.288Z,2.77
2018-07-06T21:48:09.134Z,2.70
2018-07-06T21:50:38.415Z,2.60
2018-07-06T21:53:07.987Z,3.10
2018-07-06T21:55:37.719Z,2.63
2018-07-06T21:58:07.093Z,2.60
2018-07-06T22:00:39.717Z,2.40
2018-07-06T22:03:10.802Z,2.50
2018-07-06T22:05:41.365Z,2.40
2018-07-06T22:08:10.948Z,2.22
2018-07-06T22:10:40.709Z,2.30
2018-07-06T22:13:10.371Z,2.43
2018-07-06T22:15:42.913Z,2.77
2018-07-06T22:18:14.413Z,2.70
2018-07-06T22:20:45.101Z,2.27
2018-07-06T22:23:15.236Z,2.27
2018-07-06T22:25:44.815Z,2.50
2018-07-06T22:28:14.317Z,2.70
2018-07-06T22:30:44.004Z,2.30
2018-07-06T22:33:13.363Z,2.20
2018-07-06T22:35:42.765Z,2.60
2018-07-06T22:38:12.484Z,1.90
2018-07-06T22:40:42.106Z,2.10
2018-07-06T22:43:11.596Z,2.33
2018-07-06T22:45:41.520Z,2.53
2018-07-06T22:48:11.270Z,2.60
2018-07-06T22:50:40.849Z,2.50
2018-07-06T22:53:10.576Z,2.60
2018-07-06T22:55:40.408Z,3.13
2018-07-06T22:58:09.882Z,2.87
2018-07-06T23:00:39.854Z,2.43
2018-07-06T23:03:09.387Z,2.50
2018-07-06T23:05:38.671Z,2.47
2018-07-06T23:08:08.244Z,2.47
2018-07-06T23:10:37.916Z,2.30
2018-07-06T23:13:07.408Z,2.50
2018-07-06T23:15:36.985Z,2.40
2018-07-06T23:18:06.546Z,2.37
2018-07-06T23:20:35.976Z,2.40
2018-07-06T23:23:08.539Z,2.83
2018-07-06T23:25:39.396Z,2.90
2018-07-06T23:28:09.155Z,2.30
2018-07-06T23:30:38.854Z,2.63
2018-07-06T23:33:09.239Z,2.40
2018-07-06T23:35:39.008Z,2.53
2018-07-06T23:38:08.460Z,2.33
2018-07-06T23:40:38.078Z,2.43
2018-07-06T23:43:07.862Z,2.40
2018-07-06T23:45:37.596Z,2.33
2018-07-06T23:48:07.392Z,2.63
2018-07-06T23:50:37.063Z,2.97
2018-07-06T23:53:06.823Z,2.57
2018-07-06T23:55:36.409Z,2.50
2018-07-06T23:58:06.316Z,2.87
